Airfield :







YOU CAN JOIN US ON...

 
LOGIN :

Register | Disclaimer

   EN    FR    IT 

 









Legend :    VFR   Marginal VFR   IFR   Intensive IFR   Very Intensive IFR
Visi :
Ceiling :
>= 8 km
>= 3000ft
5 to 8 km
1000 to 3000 ft
1500m to 5 km
500 to 1000 ft
800 to 1500m
200 to 500 ft
< 800m
< 200 ft
Symbols :   Thunderstorms  Fog  Heavy snow  Heavy precipitations  Wind > 20 kt






- Airport Elevation : 603 ft
- IATA code : LEB


KLEB - Lebanon Municipal

CURRENT METAR :
  • 231853Z 32008KT 10SM FEW046 28/15 A2978 RMK AO2 SLP073 T02780150

EXPIRED METARs :
  • 231753Z VRB05G15KT 10SM FEW038 27/15 A2979 RMK AO2 SLP078 60000 T02670150 10267 20217 58012
  • 231653Z 29005KT 10SM CLR 26/18 A2981 RMK AO2 RAE03 SLP083 P0000 T02560178
  • 231553Z 25004KT 10SM -RA FEW030 SCT046 BKN100 25/18 A2982 RMK AO2 RAB53 SLP088 P0000 T02500183
  • 231453Z 22005KT 10SM FEW120 24/18 A2983 RMK AO2 SLP091 T02390183 53007

TAF KLEB
Valid from the 23 at 18:00 until the 24 at 18:00 UTC


231739Z 2318/2418 27008KT P6SM SCT060 SCT120 SCT250
FM240000 20005KT P6SM FEW250
FM240800 00000KT 2SM BR BKN002
FM241100 VRB04KT P6SM FEW002 FEW250
FM241400 27010G15KT P6SM FEW060
KZBW FIR / North America



MET'MAP, your aeronautical weather chart ! - Copyright ORBIFLY December 2007 - Disclaimer

ORBIFLY MET'MAP TEAM :

Programming & Development : Alexandra Zaïnal
Original concept : Baudouin d'Aumeries
Technical & hardware support : Manuel Goepfert
Assistance : Marc-Olivier Méhu




SOURCES & CREDITS :

   NOAA